sensor_id;sensor_type;location;lat;lon;timestamp;pressure;altitude;pressure_sealevel;temperature;humidity
21234;BME280;10774;42.178;26.578;2024-01-25T00:00:29;100433.47;;;2.79;100.00
21234;BME280;10774;42.178;26.578;2024-01-25T00:02:54;100409.59;;;2.81;100.00
21234;BME280;10774;42.178;26.578;2024-01-25T00:05:19;100402.69;;;2.74;100.00
21234;BME280;10774;42.178;26.578;2024-01-25T00:07:48;100391.28;;;2.70;100.00
21234;BME280;10774;42.178;26.578;2024-01-25T00:10:16;100382.28;;;2.77;100.00
21234;BME280;10774;42.178;26.578;2024-01-25T00:12:42;100386.00;;;2.70;100.00
21234;BME280;10774;42.178;26.578;2024-01-25T00:15:12;100407.25;;;2.67;100.00
21234;BME280;10774;42.178;26.578;2024-01-25T00:17:37;100401.81;;;2.73;100.00
21234;BME280;10774;42.178;26.578;2024-01-25T00:20:04;100396.66;;;2.67;100.00
21234;BME280;10774;42.178;26.578;2024-01-25T00:22:30;100421.47;;;2.63;100.00
21234;BME280;10774;42.178;26.578;2024-01-25T00:24:55;100411.81;;;2.62;100.00
21234;BME280;10774;42.178;26.578;2024-01-25T00:27:21;100422.25;;;2.68;100.00
21234;BME280;10774;42.178;26.578;2024-01-25T00:29:46;100387.94;;;2.62;100.00
21234;BME280;10774;42.178;26.578;2024-01-25T00:32:12;100385.13;;;2.70;100.00
21234;BME280;10774;42.178;26.578;2024-01-25T00:34:37;100369.34;;;2.63;100.00
21234;BME280;10774;42.178;26.578;2024-01-25T00:37:03;100373.41;;;2.78;100.00
21234;BME280;10774;42.178;26.578;2024-01-25T00:39:29;100379.72;;;2.73;100.00
21234;BME280;10774;42.178;26.578;2024-01-25T00:42:01;100391.03;;;2.79;100.00
21234;BME280;10774;42.178;26.578;2024-01-25T00:44:29;100385.53;;;2.88;100.00
21234;BME280;10774;42.178;26.578;2024-01-25T00:46:55;100363.50;;;2.86;100.00
21234;BME280;10774;42.178;26.578;2024-01-25T00:49:20;100376.59;;;2.93;100.00
21234;BME280;10774;42.178;26.578;2024-01-25T00:51:47;100368.72;;;2.54;100.00
21234;BME280;10774;42.178;26.578;2024-01-25T00:54:14;100352.84;;;2.54;100.00
21234;BME280;10774;42.178;26.578;2024-01-25T00:56:40;100359.41;;;2.73;100.00
21234;BME280;10774;42.178;26.578;2024-01-25T00:59:06;100341.69;;;2.75;100.00
21234;BME280;10774;42.178;26.578;2024-01-25T01:01:32;100323.47;;;2.61;100.00
21234;BME280;10774;42.178;26.578;2024-01-25T01:03:58;100331.16;;;2.72;100.00
21234;BME280;10774;42.178;26.578;2024-01-25T01:06:24;100336.22;;;2.81;100.00
21234;BME280;10774;42.178;26.578;2024-01-25T01:08:50;100345.28;;;2.73;100.00
21234;BME280;10774;42.178;26.578;2024-01-25T01:11:16;100336.41;;;2.75;100.00
21234;BME280;10774;42.178;26.578;2024-01-25T01:13:41;100337.91;;;2.85;100.00
21234;BME280;10774;42.178;26.578;2024-01-25T01:16:06;100334.09;;;2.96;100.00
21234;BME280;10774;42.178;26.578;2024-01-25T01:18:32;100328.91;;;2.91;100.00
21234;BME280;10774;42.178;26.578;2024-01-25T01:20:57;100314.44;;;3.03;100.00
21234;BME280;10774;42.178;26.578;2024-01-25T01:23:23;100295.81;;;3.06;100.00
21234;BME280;10774;42.178;26.578;2024-01-25T01:25:48;100289.84;;;2.98;100.00
21234;BME280;10774;42.178;26.578;2024-01-25T01:28:14;100295.66;;;3.10;100.00
21234;BME280;10774;42.178;26.578;2024-01-25T01:30:40;100309.75;;;3.12;100.00
21234;BME280;10774;42.178;26.578;2024-01-25T01:33:10;100299.28;;;3.08;100.00
21234;BME280;10774;42.178;26.578;2024-01-25T01:35:35;100289.84;;;2.98;100.00
21234;BME280;10774;42.178;26.578;2024-01-25T01:38:00;100294.97;;;3.04;100.00
21234;BME280;10774;42.178;26.578;2024-01-25T01:40:27;100297.41;;;3.11;100.00
21234;BME280;10774;42.178;26.578;2024-01-25T01:43:01;100302.69;;;3.13;100.00
21234;BME280;10774;42.178;26.578;2024-01-25T01:45:27;100287.88;;;3.04;100.00
21234;BME280;10774;42.178;26.578;2024-01-25T01:47:54;100285.34;;;3.00;100.00
21234;BME280;10774;42.178;26.578;2024-01-25T01:50:20;100270.09;;;3.08;100.00
21234;BME280;10774;42.178;26.578;2024-01-25T01:52:46;100258.19;;;2.92;100.00
21234;BME280;10774;42.178;26.578;2024-01-25T01:55:12;100261.34;;;3.06;100.00
21234;BME280;10774;42.178;26.578;2024-01-25T01:57:38;100282.28;;;3.15;100.00
21234;BME280;10774;42.178;26.578;2024-01-25T02:00:08;100281.03;;;3.28;100.00
21234;BME280;10774;42.178;26.578;2024-01-25T02:02:34;100275.59;;;3.02;100.00
21234;BME280;10774;42.178;26.578;2024-01-25T02:05:00;100291.50;;;3.02;100.00
21234;BME280;10774;42.178;26.578;2024-01-25T02:07:26;100295.00;;;2.35;100.00
21234;BME280;10774;42.178;26.578;2024-01-25T02:09:51;100273.88;;;1.97;100.00
21234;BME280;10774;42.178;26.578;2024-01-25T02:12:17;100267.34;;;2.10;100.00
21234;BME280;10774;42.178;26.578;2024-01-25T02:14:43;100269.56;;;2.28;100.00
21234;BME280;10774;42.178;26.578;2024-01-25T02:17:08;100248.97;;;2.40;100.00
21234;BME280;10774;42.178;26.578;2024-01-25T02:19:34;100270.97;;;2.07;100.00
21234;BME280;10774;42.178;26.578;2024-01-25T02:21:59;100278.69;;;1.79;100.00
21234;BME280;10774;42.178;26.578;2024-01-25T02:24:26;100277.53;;;1.91;100.00
21234;BME280;10774;42.178;26.578;2024-01-25T02:26:51;100258.81;;;1.99;100.00
21234;BME280;10774;42.178;26.578;2024-01-25T02:29:17;100260.78;;;1.91;100.00
21234;BME280;10774;42.178;26.578;2024-01-25T02:31:42;100264.19;;;1.96;100.00
21234;BME280;10774;42.178;26.578;2024-01-25T02:34:08;100269.06;;;2.13;100.00
21234;BME280;10774;42.178;26.578;2024-01-25T02:36:33;100262.00;;;2.13;100.00
21234;BME280;10774;42.178;26.578;2024-01-25T02:38:58;100261.91;;;1.79;100.00
21234;BME280;10774;42.178;26.578;2024-01-25T02:41:24;100250.31;;;1.84;100.00
21234;BME280;10774;42.178;26.578;2024-01-25T02:43:49;100259.63;;;2.02;100.00
21234;BME280;10774;42.178;26.578;2024-01-25T02:46:15;100237.94;;;1.87;100.00
21234;BME280;10774;42.178;26.578;2024-01-25T02:48:40;100241.13;;;2.01;100.00
21234;BME280;10774;42.178;26.578;2024-01-25T02:51:05;100252.59;;;2.01;100.00
21234;BME280;10774;42.178;26.578;2024-01-25T02:53:31;100229.19;;;1.83;100.00
21234;BME280;10774;42.178;26.578;2024-01-25T02:55:56;100221.84;;;1.94;100.00
21234;BME280;10774;42.178;26.578;2024-01-25T02:58:22;100206.84;;;1.95;100.00
21234;BME280;10774;42.178;26.578;2024-01-25T03:00:47;100183.75;;;2.01;100.00
21234;BME280;10774;42.178;26.578;2024-01-25T03:03:13;100175.59;;;2.09;100.00
21234;BME280;10774;42.178;26.578;2024-01-25T03:05:38;100203.31;;;1.94;100.00
21234;BME280;10774;42.178;26.578;2024-01-25T03:08:04;100198.66;;;1.68;100.00
21234;BME280;10774;42.178;26.578;2024-01-25T03:10:29;100207.00;;;1.89;100.00
21234;BME280;10774;42.178;26.578;2024-01-25T03:12:54;100195.66;;;1.83;100.00
21234;BME280;10774;42.178;26.578;2024-01-25T03:15:20;100206.84;;;1.95;100.00
21234;BME280;10774;42.178;26.578;2024-01-25T03:17:46;100192.19;;;2.17;100.00
21234;BME280;10774;42.178;26.578;2024-01-25T03:20:11;100190.16;;;2.27;100.00
21234;BME280;10774;42.178;26.578;2024-01-25T03:22:37;100211.38;;;2.25;100.00
21234;BME280;10774;42.178;26.578;2024-01-25T03:25:02;100178.53;;;2.32;100.00
21234;BME280;10774;42.178;26.578;2024-01-25T03:27:28;100172.13;;;2.07;100.00
21234;BME280;10774;42.178;26.578;2024-01-25T03:29:53;100190.28;;;1.87;100.00
21234;BME280;10774;42.178;26.578;2024-01-25T03:32:19;100196.91;;;1.69;100.00
21234;BME280;10774;42.178;26.578;2024-01-25T03:34:44;100196.25;;;1.59;100.00
21234;BME280;10774;42.178;26.578;2024-01-25T03:37:10;100181.75;;;1.74;100.00
21234;BME280;10774;42.178;26.578;2024-01-25T03:39:36;100183.47;;;1.76;100.00
21234;BME280;10774;42.178;26.578;2024-01-25T03:42:01;100195.38;;;1.94;100.00
21234;BME280;10774;42.178;26.578;2024-01-25T03:44:26;100202.31;;;2.00;100.00
21234;BME280;10774;42.178;26.578;2024-01-25T03:46:52;100197.63;;;2.11;100.00
21234;BME280;10774;42.178;26.578;2024-01-25T03:49:17;100208.19;;;2.13;100.00
21234;BME280;10774;42.178;26.578;2024-01-25T03:51:44;100190.84;;;1.99;100.00
21234;BME280;10774;42.178;26.578;2024-01-25T03:54:09;100197.25;;;1.91;100.00
21234;BME280;10774;42.178;26.578;2024-01-25T03:56:34;100195.50;;;1.90;100.00
21234;BME280;10774;42.178;26.578;2024-01-25T03:59:00;100187.34;;;1.99;100.00
21234;BME280;10774;42.178;26.578;2024-01-25T04:01:25;100188.31;;;1.95;100.00
21234;BME280;10774;42.178;26.578;2024-01-25T04:03:51;100182.63;;;2.12;100.00
21234;BME280;10774;42.178;26.578;2024-01-25T04:06:16;100161.09;;;1.90;100.00
21234;BME280;10774;42.178;26.578;2024-01-25T04:08:42;100182.03;;;1.63;100.00
21234;BME280;10774;42.178;26.578;2024-01-25T04:11:07;100171.88;;;1.45;100.00
21234;BME280;10774;42.178;26.578;2024-01-25T04:13:35;100177.16;;;1.45;100.00
21234;BME280;10774;42.178;26.578;2024-01-25T04:16:00;100177.31;;;1.39;100.00
21234;BME280;10774;42.178;26.578;2024-01-25T04:18:26;100184.06;;;1.52;100.00
21234;BME280;10774;42.178;26.578;2024-01-25T04:20:51;100187.91;;;1.76;100.00
21234;BME280;10774;42.178;26.578;2024-01-25T04:23:17;100178.56;;;1.61;100.00
21234;BME280;10774;42.178;26.578;2024-01-25T04:25:42;100166.44;;;1.51;100.00
21234;BME280;10774;42.178;26.578;2024-01-25T04:28:08;100164.00;;;1.43;100.00
21234;BME280;10774;42.178;26.578;2024-01-25T04:30:33;100158.69;;;1.43;100.00
21234;BME280;10774;42.178;26.578;2024-01-25T04:32:59;100181.28;;;1.19;100.00
21234;BME280;10774;42.178;26.578;2024-01-25T04:35:24;100176.13;;;1.13;100.00
21234;BME280;10774;42.178;26.578;2024-01-25T04:37:50;100186.28;;;1.31;100.00
21234;BME280;10774;42.178;26.578;2024-01-25T04:40:15;100195.78;;;1.40;100.00
21234;BME280;10774;42.178;26.578;2024-01-25T04:42:41;100208.59;;;0.76;100.00
21234;BME280;10774;42.178;26.578;2024-01-25T04:45:07;100207.03;;;1.11;100.00
21234;BME280;10774;42.178;26.578;2024-01-25T04:47:32;100207.00;;;0.69;100.00
21234;BME280;10774;42.178;26.578;2024-01-25T04:49:58;100193.03;;;0.61;100.00
21234;BME280;10774;42.178;26.578;2024-01-25T04:52:23;100199.34;;;0.54;100.00
21234;BME280;10774;42.178;26.578;2024-01-25T04:54:48;100200.94;;;0.63;100.00
21234;BME280;10774;42.178;26.578;2024-01-25T04:57:14;100187.59;;;0.70;100.00
21234;BME280;10774;42.178;26.578;2024-01-25T04:59:39;100204.13;;;0.78;100.00
21234;BME280;10774;42.178;26.578;2024-01-25T05:02:05;100194.22;;;0.91;100.00
21234;BME280;10774;42.178;26.578;2024-01-25T05:04:30;100192.31;;;0.98;100.00
21234;BME280;10774;42.178;26.578;2024-01-25T05:06:56;100182.44;;;1.06;100.00
21234;BME280;10774;42.178;26.578;2024-01-25T05:09:22;100166.88;;;0.92;100.00
21234;BME280;10774;42.178;26.578;2024-01-25T05:11:47;100172.91;;;0.99;100.00
21234;BME280;10774;42.178;26.578;2024-01-25T05:14:13;100171.78;;;1.09;100.00
21234;BME280;10774;42.178;26.578;2024-01-25T05:16:38;100174.78;;;1.34;100.00
21234;BME280;10774;42.178;26.578;2024-01-25T05:19:04;100163.28;;;1.35;100.00
21234;BME280;10774;42.178;26.578;2024-01-25T05:21:29;100160.75;;;1.30;100.00
21234;BME280;10774;42.178;26.578;2024-01-25T05:23:55;100171.06;;;1.43;100.00
21234;BME280;10774;42.178;26.578;2024-01-25T05:26:21;100173.56;;;1.49;100.00
21234;BME280;10774;42.178;26.578;2024-01-25T05:28:46;100173.47;;;1.52;100.00
21234;BME280;10774;42.178;26.578;2024-01-25T05:31:12;100161.31;;;1.45;100.00
21234;BME280;10774;42.178;26.578;2024-01-25T05:33:42;100169.13;;;1.49;100.00
21234;BME280;10774;42.178;26.578;2024-01-25T05:36:08;100163.00;;;1.47;100.00
21234;BME280;10774;42.178;26.578;2024-01-25T05:38:33;100159.00;;;1.29;100.00
21234;BME280;10774;42.178;26.578;2024-01-25T05:40:59;100142.53;;;1.18;100.00
21234;BME280;10774;42.178;26.578;2024-01-25T05:43:25;100162.47;;;1.33;100.00
21234;BME280;10774;42.178;26.578;2024-01-25T05:45:50;100172.19;;;1.33;100.00
21234;BME280;10774;42.178;26.578;2024-01-25T05:48:16;100161.50;;;1.36;100.00
21234;BME280;10774;42.178;26.578;2024-01-25T05:50:41;100178.00;;;1.47;100.00
21234;BME280;10774;42.178;26.578;2024-01-25T05:53:07;100140.66;;;1.23;100.00
21234;BME280;10774;42.178;26.578;2024-01-25T05:55:32;100146.41;;;1.41;100.00
21234;BME280;10774;42.178;26.578;2024-01-25T05:57:58;100165.16;;;1.67;100.00
21234;BME280;10774;42.178;26.578;2024-01-25T06:00:23;100161.31;;;1.45;100.00
21234;BME280;10774;42.178;26.578;2024-01-25T06:02:49;100156.72;;;1.51;100.00
21234;BME280;10774;42.178;26.578;2024-01-25T06:05:14;100174.84;;;1.68;100.00
21234;BME280;10774;42.178;26.578;2024-01-25T06:07:40;100166.84;;;1.71;100.00
21234;BME280;10774;42.178;26.578;2024-01-25T06:10:06;100168.78;;;1.63;100.00
21234;BME280;10774;42.178;26.578;2024-01-25T06:12:32;100170.06;;;1.47;100.00
21234;BME280;10774;42.178;26.578;2024-01-25T06:14:57;100160.06;;;1.60;100.00
21234;BME280;10774;42.178;26.578;2024-01-25T06:17:23;100158.53;;;1.87;100.00
21234;BME280;10774;42.178;26.578;2024-01-25T06:19:48;100162.28;;;2.12;100.00
21234;BME280;10774;42.178;26.578;2024-01-25T06:22:14;100157.28;;;2.34;100.00
21234;BME280;10774;42.178;26.578;2024-01-25T06:24:39;100149.09;;;2.43;100.00
21234;BME280;10774;42.178;26.578;2024-01-25T06:27:05;100165.47;;;2.57;100.00
21234;BME280;10774;42.178;26.578;2024-01-25T06:29:30;100140.75;;;2.57;100.00
21234;BME280;10774;42.178;26.578;2024-01-25T06:31:56;100140.56;;;2.63;100.00
21234;BME280;10774;42.178;26.578;2024-01-25T06:34:21;100149.94;;;2.76;100.00
21234;BME280;10774;42.178;26.578;2024-01-25T06:36:47;100151.72;;;2.76;100.00
21234;BME280;10774;42.178;26.578;2024-01-25T06:39:12;100137.97;;;2.93;100.00
21234;BME280;10774;42.178;26.578;2024-01-25T06:41:38;100134.03;;;3.06;100.00
21234;BME280;10774;42.178;26.578;2024-01-25T06:44:03;100138.09;;;3.18;100.00
21234;BME280;10774;42.178;26.578;2024-01-25T06:46:29;100147.50;;;3.56;100.00
21234;BME280;10774;42.178;26.578;2024-01-25T06:48:54;100127.66;;;3.67;100.00
21234;BME280;10774;42.178;26.578;2024-01-25T06:51:20;100134.75;;;3.93;100.00
21234;BME280;10774;42.178;26.578;2024-01-25T06:53:45;100146.09;;;3.99;100.00
21234;BME280;10774;42.178;26.578;2024-01-25T06:56:11;100136.59;;;3.91;100.00
21234;BME280;10774;42.178;26.578;2024-01-25T06:58:36;100144.63;;;4.15;100.00
21234;BME280;10774;42.178;26.578;2024-01-25T07:01:01;100136.75;;;4.13;100.00
21234;BME280;10774;42.178;26.578;2024-01-25T07:03:29;100138.25;;;3.96;100.00
21234;BME280;10774;42.178;26.578;2024-01-25T07:05:55;100131.50;;;3.85;100.00
21234;BME280;10774;42.178;26.578;2024-01-25T07:08:20;100119.25;;;3.81;100.00
21234;BME280;10774;42.178;26.578;2024-01-25T07:10:46;100131.59;;;3.82;100.00
21234;BME280;10774;42.178;26.578;2024-01-25T07:13:12;100110.88;;;3.67;100.00
21234;BME280;10774;42.178;26.578;2024-01-25T07:15:37;100116.94;;;3.71;100.00
21234;BME280;10774;42.178;26.578;2024-01-25T07:18:03;100149.53;;;3.74;100.00
21234;BME280;10774;42.178;26.578;2024-01-25T07:20:29;100158.66;;;3.67;100.00
21234;BME280;10774;42.178;26.578;2024-01-25T07:22:54;100153.75;;;3.81;100.00
21234;BME280;10774;42.178;26.578;2024-01-25T07:25:19;100156.78;;;3.97;100.00
21234;BME280;10774;42.178;26.578;2024-01-25T07:27:45;100166.91;;;4.11;100.00
21234;BME280;10774;42.178;26.578;2024-01-25T07:30:12;100156.56;;;4.03;100.00
21234;BME280;10774;42.178;26.578;2024-01-25T07:32:38;100159.50;;;3.96;100.00
21234;BME280;10774;42.178;26.578;2024-01-25T07:35:06;100172.94;;;4.16;100.00
21234;BME280;10774;42.178;26.578;2024-01-25T07:37:32;100165.69;;;4.21;100.00
21234;BME280;10774;42.178;26.578;2024-01-25T07:39:57;100164.88;;;4.19;100.00
21234;BME280;10774;42.178;26.578;2024-01-25T07:42:23;100166.38;;;4.26;100.00
21234;BME280;10774;42.178;26.578;2024-01-25T07:44:48;100141.59;;;4.01;100.00
21234;BME280;10774;42.178;26.578;2024-01-25T07:47:14;100178.31;;;4.14;100.00
21234;BME280;10774;42.178;26.578;2024-01-25T07:49:40;100178.88;;;4.24;100.00
21234;BME280;10774;42.178;26.578;2024-01-25T07:52:06;100169.97;;;4.25;100.00
21234;BME280;10774;42.178;26.578;2024-01-25T07:54:31;100176.63;;;4.38;100.00
21234;BME280;10774;42.178;26.578;2024-01-25T07:56:56;100152.34;;;4.47;100.00
21234;BME280;10774;42.178;26.578;2024-01-25T07:59:22;100168.94;;;4.79;100.00
21234;BME280;10774;42.178;26.578;2024-01-25T08:01:47;100164.97;;;4.91;100.00
21234;BME280;10774;42.178;26.578;2024-01-25T08:04:13;100171.63;;;5.03;100.00
21234;BME280;10774;42.178;26.578;2024-01-25T08:06:38;100158.59;;;4.95;100.00
21234;BME280;10774;42.178;26.578;2024-01-25T08:09:04;100161.53;;;5.11;100.00
21234;BME280;10774;42.178;26.578;2024-01-25T08:11:29;100165.72;;;5.18;98.86
21234;BME280;10774;42.178;26.578;2024-01-25T08:13:54;100167.53;;;5.16;98.63
21234;BME280;10774;42.178;26.578;2024-01-25T08:16:20;100174.41;;;5.23;98.95
21234;BME280;10774;42.178;26.578;2024-01-25T08:18:47;100150.75;;;5.37;98.95
21234;BME280;10774;42.178;26.578;2024-01-25T08:21:13;100176.31;;;5.65;96.75
21234;BME280;10774;42.178;26.578;2024-01-25T08:23:38;100167.88;;;5.75;94.98
21234;BME280;10774;42.178;26.578;2024-01-25T08:26:05;100172.53;;;5.92;93.82
21234;BME280;10774;42.178;26.578;2024-01-25T08:28:30;100183.00;;;5.97;92.71
21234;BME280;10774;42.178;26.578;2024-01-25T08:30:55;100173.56;;;5.88;91.88
21234;BME280;10774;42.178;26.578;2024-01-25T08:33:21;100170.63;;;5.96;92.25
21234;BME280;10774;42.178;26.578;2024-01-25T08:35:46;100173.91;;;6.02;92.12
21234;BME280;10774;42.178;26.578;2024-01-25T08:38:12;100166.16;;;6.17;92.13
21234;BME280;10774;42.178;26.578;2024-01-25T08:40:37;100192.72;;;6.40;90.12
21234;BME280;10774;42.178;26.578;2024-01-25T08:43:03;100182.53;;;6.50;88.15
21234;BME280;10774;42.178;26.578;2024-01-25T08:45:30;100196.28;;;6.61;88.34
21234;BME280;10774;42.178;26.578;2024-01-25T08:47:55;100179.25;;;6.64;88.55
21234;BME280;10774;42.178;26.578;2024-01-25T08:50:21;100194.94;;;6.71;87.65
21234;BME280;10774;42.178;26.578;2024-01-25T08:52:46;100190.97;;;6.80;87.75
21234;BME280;10774;42.178;26.578;2024-01-25T08:55:13;100189.38;;;6.96;89.16
21234;BME280;10774;42.178;26.578;2024-01-25T08:57:39;100168.25;;;7.11;87.63
21234;BME280;10774;42.178;26.578;2024-01-25T09:00:06;100174.09;;;7.19;88.03
21234;BME280;10774;42.178;26.578;2024-01-25T09:02:38;100178.66;;;7.36;86.27
21234;BME280;10774;42.178;26.578;2024-01-25T09:05:07;100164.78;;;7.46;84.46
21234;BME280;10774;42.178;26.578;2024-01-25T09:07:33;100162.75;;;7.51;82.83
21234;BME280;10774;42.178;26.578;2024-01-25T09:09:59;100170.81;;;7.69;81.26
21234;BME280;10774;42.178;26.578;2024-01-25T09:12:25;100161.59;;;7.76;79.79
21234;BME280;10774;42.178;26.578;2024-01-25T09:14:50;100160.88;;;7.72;80.55
21234;BME280;10774;42.178;26.578;2024-01-25T09:17:16;100173.59;;;8.03;79.75
21234;BME280;10774;42.178;26.578;2024-01-25T09:19:50;100156.91;;;7.98;79.02
21234;BME280;10774;42.178;26.578;2024-01-25T09:22:17;100153.16;;;8.02;78.68
21234;BME280;10774;42.178;26.578;2024-01-25T09:24:44;100149.53;;;8.21;78.21
21234;BME280;10774;42.178;26.578;2024-01-25T09:27:10;100153.47;;;8.31;77.42
21234;BME280;10774;42.178;26.578;2024-01-25T09:29:35;100150.03;;;8.29;78.37
21234;BME280;10774;42.178;26.578;2024-01-25T09:32:01;100149.94;;;8.30;78.85
21234;BME280;10774;42.178;26.578;2024-01-25T09:34:26;100151.13;;;8.42;79.46
21234;BME280;10774;42.178;26.578;2024-01-25T09:36:52;100153.56;;;8.47;78.84
21234;BME280;10774;42.178;26.578;2024-01-25T09:39:17;100142.56;;;8.53;78.66
21234;BME280;10774;42.178;26.578;2024-01-25T09:41:43;100130.84;;;8.55;79.26
21234;BME280;10774;42.178;26.578;2024-01-25T09:44:08;100128.28;;;8.70;78.40
21234;BME280;10774;42.178;26.578;2024-01-25T09:46:34;100136.91;;;8.92;76.70
21234;BME280;10774;42.178;26.578;2024-01-25T09:49:03;100126.81;;;8.97;76.58
21234;BME280;10774;42.178;26.578;2024-01-25T09:51:37;100126.97;;;8.94;77.67
21234;BME280;10774;42.178;26.578;2024-01-25T09:54:04;100132.47;;;8.91;78.95
21234;BME280;10774;42.178;26.578;2024-01-25T09:56:32;100123.84;;;8.86;78.55
21234;BME280;10774;42.178;26.578;2024-01-25T09:58:58;100108.69;;;9.02;79.82
21234;BME280;10774;42.178;26.578;2024-01-25T10:01:24;100105.66;;;9.08;78.11
21234;BME280;10774;42.178;26.578;2024-01-25T10:03:50;100107.38;;;9.09;79.31
21234;BME280;10774;42.178;26.578;2024-01-25T10:06:16;100088.28;;;9.15;79.33
21234;BME280;10774;42.178;26.578;2024-01-25T10:08:42;100106.63;;;9.23;79.61
21234;BME280;10774;42.178;26.578;2024-01-25T10:11:08;100098.50;;;9.40;79.22
21234;BME280;10774;42.178;26.578;2024-01-25T10:13:44;100098.00;;;9.34;75.90
21234;BME280;10774;42.178;26.578;2024-01-25T10:16:19;100105.31;;;9.46;76.04
21234;BME280;10774;42.178;26.578;2024-01-25T10:18:46;100094.09;;;9.55;74.46
21234;BME280;10774;42.178;26.578;2024-01-25T10:21:14;100099.50;;;9.69;74.13
21234;BME280;10774;42.178;26.578;2024-01-25T10:23:40;100109.56;;;9.66;73.82
21234;BME280;10774;42.178;26.578;2024-01-25T10:26:08;100094.41;;;9.81;74.64
21234;BME280;10774;42.178;26.578;2024-01-25T10:28:33;100091.69;;;9.97;73.80
21234;BME280;10774;42.178;26.578;2024-01-25T10:31:03;100086.63;;;10.06;73.67
21234;BME280;10774;42.178;26.578;2024-01-25T10:33:33;100095.94;;;10.15;73.21
21234;BME280;10774;42.178;26.578;2024-01-25T10:35:59;100087.69;;;10.34;73.89
21234;BME280;10774;42.178;26.578;2024-01-25T10:38:32;100084.81;;;10.37;72.71
21234;BME280;10774;42.178;26.578;2024-01-25T10:41:03;100074.84;;;10.53;72.66
21234;BME280;10774;42.178;26.578;2024-01-25T10:43:29;100082.44;;;10.75;72.61
21234;BME280;10774;42.178;26.578;2024-01-25T10:45:58;100062.59;;;10.78;71.62
21234;BME280;10774;42.178;26.578;2024-01-25T10:48:27;100066.34;;;10.89;71.32
21234;BME280;10774;42.178;26.578;2024-01-25T10:50:54;100073.31;;;11.06;69.02
21234;BME280;10774;42.178;26.578;2024-01-25T10:53:21;100060.59;;;11.22;67.47
21234;BME280;10774;42.178;26.578;2024-01-25T10:55:47;100057.59;;;11.41;66.43
21234;BME280;10774;42.178;26.578;2024-01-25T10:58:14;100047.72;;;11.42;65.76
21234;BME280;10774;42.178;26.578;2024-01-25T11:01:01;100067.22;;;11.58;65.57
21234;BME280;10774;42.178;26.578;2024-01-25T11:03:29;100070.63;;;11.74;65.05
21234;BME280;10774;42.178;26.578;2024-01-25T11:06:09;100057.31;;;11.46;64.94
21234;BME280;10774;42.178;26.578;2024-01-25T11:08:38;100058.50;;;11.55;64.69
21234;BME280;10774;42.178;26.578;2024-01-25T11:11:11;100044.16;;;11.41;65.12
21234;BME280;10774;42.178;26.578;2024-01-25T11:16:16;100064.03;;;10.97;66.70
21234;BME280;10774;42.178;26.578;2024-01-25T11:18:52;100050.59;;;10.97;67.36
21234;BME280;10774;42.178;26.578;2024-01-25T11:21:22;100038.38;;;11.20;67.23
21234;BME280;10774;42.178;26.578;2024-01-25T11:23:48;100053.59;;;11.61;65.49
21234;BME280;10774;42.178;26.578;2024-01-25T11:26:15;100032.53;;;11.68;60.86
21234;BME280;10774;42.178;26.578;2024-01-25T11:28:41;100026.84;;;11.99;61.26
21234;BME280;10774;42.178;26.578;2024-01-25T11:31:07;100028.16;;;12.32;60.38
21234;BME280;10774;42.178;26.578;2024-01-25T11:33:32;100016.84;;;12.14;59.27
21234;BME280;10774;42.178;26.578;2024-01-25T11:35:59;100022.84;;;12.05;56.18
21234;BME280;10774;42.178;26.578;2024-01-25T11:38:24;100021.63;;;11.84;55.06
21234;BME280;10774;42.178;26.578;2024-01-25T11:40:50;100023.59;;;11.94;56.04
21234;BME280;10774;42.178;26.578;2024-01-25T11:43:15;100005.31;;;11.99;55.77
21234;BME280;10774;42.178;26.578;2024-01-25T11:45:41;99991.63;;;11.90;56.05
21234;BME280;10774;42.178;26.578;2024-01-25T11:48:07;100005.34;;;11.72;55.32
21234;BME280;10774;42.178;26.578;2024-01-25T11:50:33;100019.94;;;11.68;55.53
21234;BME280;10774;42.178;26.578;2024-01-25T11:52:58;99989.81;;;11.63;56.43
21234;BME280;10774;42.178;26.578;2024-01-25T11:55:24;100006.88;;;11.76;55.36
21234;BME280;10774;42.178;26.578;2024-01-25T11:57:49;99999.59;;;11.64;55.46
21234;BME280;10774;42.178;26.578;2024-01-25T12:00:15;99988.66;;;11.67;55.58
21234;BME280;10774;42.178;26.578;2024-01-25T12:02:42;100000.28;;;11.81;55.86
21234;BME280;10774;42.178;26.578;2024-01-25T12:05:10;100001.84;;;11.85;55.65
21234;BME280;10774;42.178;26.578;2024-01-25T12:07:35;99997.56;;;11.82;55.54
21234;BME280;10774;42.178;26.578;2024-01-25T12:10:06;100017.13;;;11.84;55.28
21234;BME280;10774;42.178;26.578;2024-01-25T12:12:32;100002.81;;;11.84;55.78
21234;BME280;10774;42.178;26.578;2024-01-25T12:14:58;100009.72;;;11.88;55.97
21234;BME280;10774;42.178;26.578;2024-01-25T12:17:26;100014.88;;;11.91;55.90
21234;BME280;10774;42.178;26.578;2024-01-25T12:19:54;100008.03;;;11.72;55.60
21234;BME280;10774;42.178;26.578;2024-01-25T12:22:21;100013.81;;;11.66;56.49
21234;BME280;10774;42.178;26.578;2024-01-25T12:24:47;100014.81;;;11.65;55.76
21234;BME280;10774;42.178;26.578;2024-01-25T12:27:14;100018.22;;;11.67;56.09
21234;BME280;10774;42.178;26.578;2024-01-25T12:29:40;100008.66;;;11.63;57.06
21234;BME280;10774;42.178;26.578;2024-01-25T12:32:06;100017.50;;;11.65;57.19
21234;BME280;10774;42.178;26.578;2024-01-25T12:34:31;100001.09;;;11.56;56.88
21234;BME280;10774;42.178;26.578;2024-01-25T12:36:56;100019.22;;;11.66;57.34
21234;BME280;10774;42.178;26.578;2024-01-25T12:39:22;100010.47;;;11.63;57.69